createdAt,value
2018-09-15T00:00:54.844Z,6.10
2018-09-15T00:03:23.280Z,6.43
2018-09-15T00:05:51.467Z,6.20
2018-09-15T00:08:19.623Z,6.07
2018-09-15T00:10:48.167Z,5.83
2018-09-15T00:13:16.977Z,6.33
2018-09-15T00:15:45.205Z,7.23
2018-09-15T00:18:14.904Z,6.67
2018-09-15T00:20:43.041Z,6.73
2018-09-15T00:23:11.978Z,6.23
2018-09-15T00:25:40.965Z,7.23
2018-09-15T00:28:09.831Z,6.73
2018-09-15T00:30:37.953Z,6.80
2018-09-15T00:33:06.175Z,6.47
2018-09-15T00:35:34.346Z,6.80
2018-09-15T00:38:02.509Z,6.40
2018-09-15T00:40:30.626Z,7.20
2018-09-15T00:42:58.783Z,6.60
2018-09-15T00:45:26.993Z,7.20
2018-09-15T00:47:55.107Z,7.23
2018-09-15T00:50:23.279Z,9.70
2018-09-15T00:52:51.427Z,7.10
2018-09-15T00:55:19.658Z,6.87
2018-09-15T00:57:48.498Z,6.93
2018-09-15T01:00:16.657Z,8.43
2018-09-15T01:02:44.857Z,7.40
2018-09-15T01:05:12.990Z,7.40
2018-09-15T01:07:41.112Z,7.03
2018-09-15T01:10:09.235Z,8.17
2018-09-15T01:12:37.428Z,7.33
2018-09-15T01:15:05.598Z,7.20
2018-09-15T01:17:33.747Z,6.80
2018-09-15T01:20:01.982Z,7.03
2018-09-15T01:22:30.051Z,7.30
2018-09-15T01:24:58.176Z,7.73
2018-09-15T01:27:33.254Z,7.40
2018-09-15T01:30:01.492Z,7.47
2018-09-15T01:32:29.718Z,6.73
2018-09-15T01:34:57.918Z,8.63
2018-09-15T01:37:26.059Z,11.57
2018-09-15T01:39:54.366Z,7.60
2018-09-15T01:42:22.532Z,7.43
2018-09-15T01:44:50.886Z,6.83
2018-09-15T01:47:19.079Z,6.97
2018-09-15T01:49:47.221Z,7.60
2018-09-15T01:52:15.412Z,7.70
2018-09-15T01:54:43.747Z,10.53
2018-09-15T01:57:12.045Z,7.73
2018-09-15T01:59:40.338Z,7.73
2018-09-15T02:02:08.489Z,7.80
2018-09-15T02:04:36.621Z,7.97
2018-09-15T02:07:04.833Z,7.23
2018-09-15T02:09:32.973Z,7.97
2018-09-15T02:12:01.110Z,8.27
2018-09-15T02:14:29.270Z,8.13
2018-09-15T02:16:57.457Z,8.07
2018-09-15T02:19:25.604Z,9.57
2018-09-15T02:21:53.723Z,8.50
2018-09-15T02:24:22.107Z,7.13
2018-09-15T02:26:50.215Z,7.53
2018-09-15T02:29:18.407Z,8.07
2018-09-15T02:31:46.561Z,7.93
2018-09-15T02:34:14.762Z,7.53
2018-09-15T02:36:43.039Z,7.50
2018-09-15T02:39:11.870Z,14.30
2018-09-15T02:41:40.103Z,8.13
2018-09-15T02:44:08.385Z,7.97
2018-09-15T02:46:36.532Z,7.43
2018-09-15T02:49:04.724Z,8.33
2018-09-15T02:51:33.005Z,6.90
2018-09-15T02:54:01.235Z,8.53
2018-09-15T02:56:29.373Z,9.07
2018-09-15T02:58:57.522Z,8.43
2018-09-15T03:01:25.959Z,8.13
2018-09-15T03:03:54.118Z,8.33
2018-09-15T03:06:22.260Z,7.80
2018-09-15T03:08:50.946Z,8.10
2018-09-15T03:11:19.587Z,8.03
2018-09-15T03:13:47.910Z,8.13
2018-09-15T03:16:16.117Z,8.20
2018-09-15T03:18:44.285Z,7.87
2018-09-15T03:21:12.430Z,8.13
2018-09-15T03:23:40.709Z,7.37
2018-09-15T03:26:08.995Z,9.70
2018-09-15T03:28:37.157Z,7.97
2018-09-15T03:31:05.408Z,8.00
2018-09-15T03:33:33.697Z,8.20
2018-09-15T03:36:01.918Z,8.37
2018-09-15T03:38:30.108Z,9.03
2018-09-15T03:40:58.370Z,7.90
2018-09-15T03:43:26.601Z,8.40
2018-09-15T03:45:54.842Z,8.27
2018-09-15T03:48:23.226Z,27.43
2018-09-15T03:50:51.369Z,8.20
2018-09-15T03:53:19.649Z,7.93
2018-09-15T03:55:47.890Z,8.30
2018-09-15T03:58:16.083Z,12.27
2018-09-15T04:00:44.286Z,7.30
2018-09-15T04:03:12.615Z,7.90
2018-09-15T04:05:40.954Z,7.80
2018-09-15T04:08:09.116Z,9.10
2018-09-15T04:10:37.271Z,8.80
2018-09-15T04:13:05.548Z,8.83
2018-09-15T04:15:33.719Z,8.50
2018-09-15T04:18:01.917Z,8.93
2018-09-15T04:20:30.062Z,10.07
2018-09-15T04:22:58.757Z,9.67
2018-09-15T04:25:27.077Z,9.03
2018-09-15T04:27:55.235Z,9.00
2018-09-15T04:30:23.491Z,8.43
2018-09-15T04:32:51.801Z,9.17
2018-09-15T04:35:20.059Z,8.40
2018-09-15T04:37:48.180Z,9.83
2018-09-15T04:40:16.533Z,10.60
2018-09-15T04:42:44.699Z,9.10
2018-09-15T04:45:12.905Z,9.23
2018-09-15T04:47:41.073Z,10.03
2018-09-15T04:50:09.413Z,9.53
2018-09-15T04:52:37.681Z,9.60
2018-09-15T04:55:05.835Z,10.40
2018-09-15T04:57:34.005Z,9.17
2018-09-15T05:00:02.183Z,10.17
2018-09-15T05:02:30.429Z,11.50
2018-09-15T05:04:58.629Z,10.20
2018-09-15T05:07:26.778Z,10.10
2018-09-15T05:09:54.903Z,11.13
2018-09-15T05:12:23.080Z,11.37
2018-09-15T05:14:51.331Z,10.67
2018-09-15T05:17:19.837Z,10.57
2018-09-15T05:19:48.098Z,11.87
2018-09-15T05:22:16.257Z,10.10
2018-09-15T05:24:44.411Z,11.40
2018-09-15T05:27:12.619Z,10.50
2018-09-15T05:29:40.780Z,10.37
2018-09-15T05:32:08.933Z,9.80
2018-09-15T05:34:37.237Z,9.83
2018-09-15T05:37:05.425Z,9.40
2018-09-15T05:39:33.589Z,9.40
2018-09-15T05:42:01.777Z,9.30
2018-09-15T05:44:29.911Z,8.83
2018-09-15T05:46:58.203Z,9.23
2018-09-15T05:49:26.567Z,8.27
2018-09-15T05:51:54.751Z,9.77
2018-09-15T05:54:23.043Z,9.00
2018-09-15T05:56:51.256Z,9.33
2018-09-15T05:59:19.419Z,8.07
2018-09-15T06:01:47.634Z,8.43
2018-09-15T06:04:15.859Z,8.73
2018-09-15T06:06:45.316Z,7.60
2018-09-15T06:09:13.387Z,8.00
2018-09-15T06:11:42.341Z,7.53
2018-09-15T06:14:10.513Z,7.00
2018-09-15T06:16:38.654Z,8.07
2018-09-15T06:19:06.792Z,7.97
2018-09-15T06:21:34.968Z,7.03
2018-09-15T06:24:03.965Z,7.40
2018-09-15T06:26:32.577Z,7.70
2018-09-15T06:29:00.760Z,7.37
2018-09-15T06:31:28.930Z,7.07
2018-09-15T06:33:57.311Z,7.90
2018-09-15T06:36:25.460Z,7.97
2018-09-15T06:38:53.999Z,8.00
2018-09-15T06:41:22.411Z,8.30
2018-09-15T06:43:50.587Z,7.60
2018-09-15T06:46:18.849Z,8.67
2018-09-15T06:48:47.037Z,9.40
2018-09-15T06:51:15.362Z,8.60
2018-09-15T06:53:45.751Z,9.03
2018-09-15T06:56:13.921Z,9.03
2018-09-15T06:58:42.150Z,8.43
2018-09-15T07:01:10.291Z,9.40
2018-09-15T07:03:38.485Z,8.87
2018-09-15T07:06:06.660Z,8.83
2018-09-15T07:08:34.839Z,9.47
2018-09-15T07:11:02.958Z,8.77
2018-09-15T07:13:31.127Z,9.50
2018-09-15T07:15:59.360Z,8.13
2018-09-15T07:18:28.152Z,8.50
2018-09-15T07:20:56.284Z,8.80
2018-09-15T07:23:24.565Z,9.67
2018-09-15T07:25:52.777Z,8.63
2018-09-15T07:28:21.009Z,10.03
2018-09-15T07:30:49.169Z,11.33
2018-09-15T07:33:17.305Z,9.70
2018-09-15T07:35:45.469Z,9.43
2018-09-15T07:38:13.717Z,8.13
2018-09-15T07:40:41.895Z,7.60
2018-09-15T07:43:10.049Z,7.23
2018-09-15T07:45:38.263Z,6.73
2018-09-15T07:48:07.074Z,5.50
2018-09-15T07:50:35.319Z,5.77
2018-09-15T07:53:03.695Z,5.40
2018-09-15T07:55:31.898Z,5.50
2018-09-15T07:58:00.693Z,7.33
2018-09-15T08:00:28.794Z,5.80
2018-09-15T08:02:56.981Z,5.47
2018-09-15T08:05:25.199Z,6.37
2018-09-15T08:07:54.038Z,5.50
2018-09-15T08:10:22.219Z,5.70
2018-09-15T08:12:50.393Z,5.37
2018-09-15T08:15:18.682Z,4.70
2018-09-15T08:17:47.851Z,4.53
2018-09-15T08:20:16.069Z,4.03
2018-09-15T08:22:44.273Z,4.30
2018-09-15T08:25:12.617Z,4.50
2018-09-15T08:27:40.915Z,4.50
2018-09-15T08:30:09.063Z,4.13
2018-09-15T08:32:37.403Z,4.17
2018-09-15T08:35:05.773Z,4.43
2018-09-15T08:37:34.447Z,4.43
2018-09-15T08:40:02.674Z,3.93
2018-09-15T08:42:30.953Z,4.13
2018-09-15T08:44:59.179Z,4.10
2018-09-15T08:47:27.379Z,6.70
2018-09-15T08:49:56.142Z,3.40
2018-09-15T08:52:24.408Z,3.20
2018-09-15T08:54:52.677Z,3.70
2018-09-15T08:57:21.098Z,4.40
2018-09-15T08:59:49.275Z,5.80
2018-09-15T09:02:17.467Z,3.47
2018-09-15T09:04:45.824Z,3.00
2018-09-15T09:07:14.173Z,3.00
2018-09-15T09:09:42.635Z,3.13
2018-09-15T09:12:10.877Z,2.60
2018-09-15T09:14:39.038Z,2.70
2018-09-15T09:17:07.357Z,2.97
2018-09-15T09:19:35.553Z,3.00
2018-09-15T09:22:03.822Z,3.43
2018-09-15T09:24:32.065Z,3.23
2018-09-15T09:27:00.688Z,3.20
2018-09-15T09:29:29.209Z,2.90
2018-09-15T09:31:57.403Z,3.53
2018-09-15T09:34:25.804Z,3.10
2018-09-15T09:36:53.968Z,4.90
2018-09-15T09:39:22.131Z,3.67
2018-09-15T09:41:50.307Z,2.93
2018-09-15T09:44:18.583Z,3.07
2018-09-15T09:46:46.883Z,2.77
2018-09-15T09:49:15.062Z,4.40
2018-09-15T09:51:43.295Z,2.67
2018-09-15T09:54:12.178Z,3.60
2018-09-15T09:56:48.710Z,4.00
2018-09-15T09:59:16.991Z,3.40
2018-09-15T10:01:50.526Z,5.70
2018-09-15T10:04:18.829Z,3.47
2018-09-15T10:06:47.365Z,2.93
2018-09-15T10:09:15.562Z,2.33
2018-09-15T10:11:43.739Z,2.93
2018-09-15T10:14:11.871Z,2.33
2018-09-15T10:16:40.251Z,3.27
2018-09-15T10:19:09.125Z,3.90
2018-09-15T10:21:37.310Z,2.13
2018-09-15T10:24:05.628Z,2.90
2018-09-15T10:26:33.937Z,3.33
2018-09-15T10:29:02.114Z,2.20
2018-09-15T10:31:30.392Z,1.80
2018-09-15T10:33:58.606Z,2.43
2018-09-15T10:36:26.949Z,2.10
2018-09-15T10:38:55.449Z,3.93
2018-09-15T10:41:23.807Z,2.50
2018-09-15T10:43:52.463Z,4.17
2018-09-15T10:46:20.607Z,2.40
2018-09-15T10:48:48.780Z,2.57
2018-09-15T10:51:17.113Z,3.90
2018-09-15T10:53:45.366Z,2.03
2018-09-15T10:56:13.534Z,2.10
2018-09-15T10:58:41.821Z,1.90
2018-09-15T11:01:09.982Z,1.90
2018-09-15T11:03:38.155Z,1.80
2018-09-15T11:06:06.327Z,1.70
2018-09-15T11:08:34.602Z,3.97
2018-09-15T11:11:02.908Z,2.10
2018-09-15T11:13:31.137Z,2.47
2018-09-15T11:15:59.852Z,2.23
2018-09-15T11:18:27.977Z,2.00
2018-09-15T11:20:56.264Z,3.30
2018-09-15T11:23:24.499Z,2.40
2018-09-15T11:25:52.796Z,1.57
2018-09-15T11:28:21.059Z,1.93
2018-09-15T11:30:49.230Z,1.60
2018-09-15T11:33:17.784Z,1.70
2018-09-15T11:35:46.145Z,1.93
2018-09-15T11:38:14.350Z,2.50
2018-09-15T11:40:42.652Z,2.17
2018-09-15T11:43:10.969Z,2.17
2018-09-15T11:45:39.209Z,2.30
2018-09-15T11:48:07.500Z,1.67
2018-09-15T11:50:35.688Z,1.53
2018-09-15T11:53:03.976Z,2.60
2018-09-15T11:55:32.354Z,3.00
2018-09-15T11:58:00.550Z,1.80
2018-09-15T12:00:31.547Z,2.17
2018-09-15T12:03:00.100Z,3.60
2018-09-15T12:05:28.262Z,2.70
2018-09-15T12:07:56.513Z,2.50
2018-09-15T12:10:24.672Z,2.60
2018-09-15T12:12:53.121Z,5.30
2018-09-15T12:15:22.000Z,2.00
2018-09-15T12:17:50.284Z,2.17
2018-09-15T12:20:18.781Z,1.83
2018-09-15T12:22:48.461Z,2.07
2018-09-15T12:25:17.501Z,3.83
2018-09-15T12:27:45.664Z,2.00
2018-09-15T12:30:13.822Z,3.10
2018-09-15T12:32:42.106Z,2.30
2018-09-15T12:35:10.475Z,2.30
2018-09-15T12:37:38.732Z,2.20
2018-09-15T12:40:06.987Z,2.00
2018-09-15T12:42:35.182Z,2.07
2018-09-15T12:45:03.574Z,1.60
2018-09-15T12:47:31.751Z,1.43
2018-09-15T12:50:06.616Z,2.20
2018-09-15T12:52:34.837Z,1.70
2018-09-15T12:55:03.259Z,1.40
2018-09-15T12:57:31.492Z,1.30
2018-09-15T12:59:59.826Z,1.60
2018-09-15T13:02:28.475Z,2.00
2018-09-15T13:04:56.860Z,1.60
2018-09-15T13:07:25.075Z,2.07
2018-09-15T13:09:53.802Z,2.00
2018-09-15T13:12:22.021Z,1.70
2018-09-15T13:14:50.272Z,1.90
2018-09-15T13:17:18.515Z,2.10
2018-09-15T13:19:46.693Z,2.27
2018-09-15T13:22:14.902Z,2.27
2018-09-15T13:24:43.980Z,1.70
2018-09-15T13:27:12.216Z,1.97
2018-09-15T13:29:40.710Z,2.13
2018-09-15T13:32:08.895Z,2.00
2018-09-15T13:34:37.266Z,1.97
2018-09-15T13:37:05.577Z,2.10
2018-09-15T13:39:34.079Z,2.10
2018-09-15T13:42:03.342Z,2.33
2018-09-15T13:44:32.222Z,2.63
2018-09-15T13:47:31.799Z,1.90
2018-09-15T13:50:13.338Z,2.23
2018-09-15T13:52:51.118Z,1.70
2018-09-15T13:55:27.678Z,2.13
2018-09-15T13:58:06.713Z,1.73
2018-09-15T14:00:42.253Z,1.80
2018-09-15T14:03:11.358Z,1.60
2018-09-15T14:05:47.520Z,2.23
2018-09-15T14:08:15.855Z,1.80
2018-09-15T14:10:44.164Z,1.80
2018-09-15T14:13:12.368Z,1.90
2018-09-15T14:15:40.806Z,1.70
2018-09-15T14:18:09.126Z,1.80
2018-09-15T14:20:37.478Z,2.10
2018-09-15T14:23:05.870Z,1.90
2018-09-15T14:25:34.180Z,2.17
2018-09-15T14:28:03.381Z,1.73
2018-09-15T14:30:31.634Z,1.93
2018-09-15T14:33:04.518Z,1.93
2018-09-15T14:35:47.934Z,2.20
2018-09-15T14:38:16.379Z,1.90
2018-09-15T14:40:44.605Z,1.70
2018-09-15T14:43:12.838Z,2.00
2018-09-15T14:45:41.420Z,2.00
2018-09-15T14:48:19.531Z,2.63
2018-09-15T14:51:06.496Z,2.13
2018-09-15T14:53:35.961Z,4.67
2018-09-15T14:56:04.356Z,2.20
2018-09-15T14:58:45.590Z,2.10
2018-09-15T15:01:27.834Z,1.93
2018-09-15T15:03:56.547Z,1.83
2018-09-15T15:06:24.752Z,2.57
2018-09-15T15:08:52.973Z,2.10
2018-09-15T15:11:21.801Z,2.00
2018-09-15T15:13:50.034Z,2.70
2018-09-15T15:16:18.313Z,2.30
2018-09-15T15:18:46.622Z,2.33
2018-09-15T15:21:14.902Z,1.90
2018-09-15T15:23:43.254Z,1.90
2018-09-15T15:26:12.482Z,1.50
2018-09-15T15:28:40.739Z,2.60
2018-09-15T15:31:08.996Z,2.00
2018-09-15T15:33:37.400Z,2.90
2018-09-15T15:36:07.042Z,2.70
2018-09-15T15:38:35.251Z,2.20
2018-09-15T15:41:04.639Z,2.40
2018-09-15T15:43:32.938Z,1.80
2018-09-15T15:46:01.142Z,2.47
2018-09-15T15:48:29.350Z,2.53
2018-09-15T15:50:58.318Z,1.97
2018-09-15T15:53:26.645Z,2.03
2018-09-15T15:55:54.849Z,2.83
2018-09-15T15:58:23.163Z,2.80
2018-09-15T16:00:51.586Z,2.50
2018-09-15T16:03:19.823Z,2.53
2018-09-15T16:05:48.065Z,2.40
2018-09-15T16:08:16.230Z,3.20
2018-09-15T16:10:44.536Z,2.47
2018-09-15T16:13:12.836Z,2.93
2018-09-15T16:15:41.109Z,3.27
2018-09-15T16:18:09.313Z,2.23
2018-09-15T16:20:37.556Z,2.00
2018-09-15T16:23:05.856Z,3.00
2018-09-15T16:25:34.137Z,2.50
2018-09-15T16:28:02.391Z,3.03
2018-09-15T16:30:31.119Z,2.27
2018-09-15T16:32:59.332Z,2.00
2018-09-15T16:35:27.479Z,1.90
2018-09-15T16:37:55.803Z,1.97
2018-09-15T16:40:23.981Z,2.70
2018-09-15T16:42:52.257Z,4.10
2018-09-15T16:45:20.462Z,4.17
2018-09-15T16:47:48.674Z,2.13
2018-09-15T16:50:16.891Z,2.70
2018-09-15T16:52:45.464Z,2.70
2018-09-15T16:55:13.763Z,2.47
2018-09-15T16:57:42.397Z,3.10
2018-09-15T17:00:10.563Z,2.40
2018-09-15T17:02:39.140Z,2.87
2018-09-15T17:05:14.688Z,2.53
2018-09-15T17:07:43.007Z,3.30
2018-09-15T17:10:11.280Z,4.23
2018-09-15T17:12:39.445Z,2.57
2018-09-15T17:15:08.246Z,2.10
2018-09-15T17:17:54.680Z,2.53
2018-09-15T17:20:23.140Z,3.17
2018-09-15T17:22:51.314Z,3.43
2018-09-15T17:25:19.659Z,2.63
2018-09-15T17:27:47.930Z,2.50
2018-09-15T17:30:16.159Z,2.47
2018-09-15T17:32:44.416Z,2.30
2018-09-15T17:35:12.656Z,8.70
2018-09-15T17:37:40.900Z,3.00
2018-09-15T17:40:09.184Z,3.20
2018-09-15T17:42:37.440Z,2.97
2018-09-15T17:45:05.623Z,3.03
2018-09-15T17:47:33.837Z,2.90
2018-09-15T17:50:02.033Z,3.13
2018-09-15T17:52:30.361Z,3.93
2018-09-15T17:54:58.594Z,2.70
2018-09-15T17:57:26.793Z,12.70
2018-09-15T17:59:55.049Z,2.87
2018-09-15T18:02:24.001Z,3.40
2018-09-15T18:04:52.155Z,3.97
2018-09-15T18:07:20.375Z,2.60
2018-09-15T18:09:48.668Z,3.20
2018-09-15T18:12:16.877Z,3.03
2018-09-15T18:14:45.079Z,3.47
2018-09-15T18:17:13.284Z,3.37
2018-09-15T18:19:41.756Z,6.77
2018-09-15T18:22:10.158Z,3.23
2018-09-15T18:24:38.559Z,3.13
2018-09-15T18:27:06.775Z,3.43
2018-09-15T18:29:34.923Z,2.77
2018-09-15T18:32:03.196Z,3.17
2018-09-15T18:34:31.414Z,2.13
2018-09-15T18:36:59.771Z,2.67
2018-09-15T18:39:28.527Z,2.80
2018-09-15T18:41:56.734Z,2.63
2018-09-15T18:44:24.896Z,2.67
2018-09-15T18:46:53.161Z,2.70
2018-09-15T18:49:21.424Z,2.50
2018-09-15T18:51:49.663Z,3.00
2018-09-15T18:54:18.098Z,2.30
2018-09-15T18:56:46.272Z,1.93
2018-09-15T18:59:15.000Z,2.33
2018-09-15T19:01:43.657Z,2.50
2018-09-15T19:04:12.086Z,2.30
2018-09-15T19:06:40.362Z,2.57
2018-09-15T19:09:10.740Z,2.07
2018-09-15T19:11:39.191Z,2.50
2018-09-15T19:14:07.748Z,2.60
2018-09-15T19:16:36.878Z,2.47
2018-09-15T19:19:06.378Z,2.20
2018-09-15T19:21:37.570Z,2.03
2018-09-15T19:24:05.808Z,1.77
2018-09-15T19:26:34.068Z,1.97
2018-09-15T19:29:02.706Z,3.40
2018-09-15T19:31:32.556Z,1.67
2018-09-15T19:34:00.792Z,2.23
2018-09-15T19:36:29.433Z,3.30
2018-09-15T19:38:57.756Z,1.80
2018-09-15T19:41:26.236Z,2.10
2018-09-15T19:43:56.047Z,2.57
2018-09-15T19:46:24.686Z,7.67
2018-09-15T19:48:52.960Z,2.23
2018-09-15T19:51:22.030Z,2.13
2018-09-15T19:53:52.382Z,2.57
2018-09-15T19:56:22.072Z,2.97
2018-09-15T19:58:50.261Z,3.33
2018-09-15T20:01:18.443Z,2.80
2018-09-15T20:03:47.052Z,3.20
2018-09-15T20:06:15.467Z,2.37
2018-09-15T20:08:43.784Z,2.00
2018-09-15T20:11:12.106Z,1.93
2018-09-15T20:13:40.340Z,2.47
2018-09-15T20:16:07.590Z,2.20
2018-09-15T20:18:34.856Z,2.57
2018-09-15T20:21:02.035Z,2.00
2018-09-15T20:23:30.294Z,3.43
2018-09-15T20:25:58.521Z,2.80
2018-09-15T20:28:26.739Z,2.90
2018-09-15T20:30:54.904Z,2.63
2018-09-15T20:33:23.300Z,6.90
2018-09-15T20:35:51.456Z,2.83
2018-09-15T20:38:19.641Z,3.13
2018-09-15T20:40:47.902Z,2.67
2018-09-15T20:43:16.081Z,2.50
2018-09-15T20:45:44.409Z,3.97
2018-09-15T20:48:13.042Z,3.13
2018-09-15T20:50:41.265Z,3.20
2018-09-15T20:53:09.532Z,3.20
2018-09-15T20:55:37.730Z,2.73
2018-09-15T20:58:05.942Z,3.53
2018-09-15T21:00:34.616Z,3.23
2018-09-15T21:03:02.824Z,3.53
2018-09-15T21:05:30.983Z,2.93
2018-09-15T21:07:59.125Z,3.20
2018-09-15T21:10:27.295Z,3.20
2018-09-15T21:12:55.443Z,3.47
2018-09-15T21:15:23.645Z,3.73
2018-09-15T21:17:51.843Z,4.90
2018-09-15T21:20:20.049Z,5.67
2018-09-15T21:22:48.332Z,7.33
2018-09-15T21:25:16.545Z,4.70
2018-09-15T21:27:44.825Z,4.00
2018-09-15T21:30:12.991Z,3.60
2018-09-15T21:32:41.197Z,3.70
2018-09-15T21:35:09.484Z,3.80
2018-09-15T21:37:37.877Z,4.10
2018-09-15T21:40:06.135Z,3.93
2018-09-15T21:42:34.310Z,3.50
2018-09-15T21:45:03.129Z,3.50
2018-09-15T21:47:31.604Z,4.03
2018-09-15T21:49:59.911Z,4.50
2018-09-15T21:52:28.066Z,4.33
2018-09-15T21:54:56.421Z,4.63
2018-09-15T21:57:24.790Z,4.20
2018-09-15T21:59:52.989Z,4.10
2018-09-15T22:02:22.931Z,4.30
2018-09-15T22:04:51.526Z,3.80
2018-09-15T22:07:19.811Z,3.30
2018-09-15T22:09:48.049Z,4.20
2018-09-15T22:12:16.432Z,3.97
2018-09-15T22:14:44.621Z,4.27
2018-09-15T22:17:12.771Z,4.80
2018-09-15T22:19:40.983Z,4.33
2018-09-15T22:22:09.212Z,4.73
2018-09-15T22:24:37.447Z,5.00
2018-09-15T22:27:05.863Z,5.73
2018-09-15T22:29:34.097Z,5.20
2018-09-15T22:32:02.286Z,4.67
2018-09-15T22:34:30.633Z,4.80
2018-09-15T22:36:58.755Z,5.13
2018-09-15T22:39:27.056Z,5.83
2018-09-15T22:41:55.244Z,5.57
2018-09-15T22:44:23.530Z,5.23
2018-09-15T22:46:51.707Z,5.53
2018-09-15T22:49:19.895Z,6.17
2018-09-15T22:51:48.048Z,6.10
2018-09-15T22:54:16.373Z,4.90
2018-09-15T22:56:44.572Z,4.70
2018-09-15T22:59:12.725Z,4.90
2018-09-15T23:01:40.919Z,4.47
2018-09-15T23:04:12.395Z,5.40
2018-09-15T23:06:40.536Z,4.60
2018-09-15T23:09:09.980Z,4.23
2018-09-15T23:11:38.140Z,3.60
2018-09-15T23:14:06.437Z,4.57
2018-09-15T23:16:34.660Z,4.23
2018-09-15T23:19:02.839Z,4.10
2018-09-15T23:21:30.985Z,3.63
2018-09-15T23:23:59.353Z,4.60
2018-09-15T23:26:27.502Z,4.87
2018-09-15T23:28:55.630Z,5.10
2018-09-15T23:31:23.895Z,4.90
2018-09-15T23:33:52.276Z,4.10
2018-09-15T23:36:20.459Z,4.90
2018-09-15T23:38:48.687Z,4.80
2018-09-15T23:41:16.909Z,4.57
2018-09-15T23:43:45.377Z,4.50
2018-09-15T23:46:13.514Z,4.07
2018-09-15T23:48:41.669Z,4.20
2018-09-15T23:51:09.916Z,4.17
2018-09-15T23:53:38.218Z,4.33
2018-09-15T23:56:06.505Z,3.50
2018-09-15T23:58:34.794Z,4.03
